OLBO2: North Canadian River

Data processed at Thu Jan 04 2018 23:20


All information presented herein is the property of the government of the United States of America and may be revised or deleted at any time without prior notice.
Dissemination of this information without the expressed written consent of the Public Affairs Office, Tulsa District U.S. Army Corps of Engineers is strictly prohibited.
These data are gathered electronically and, as presented, have not undergone any form of quality control. These data are not guaranteed to be valid or correct.
Go to home page.
Go to station list.

Upstream stations:

Downstream station:
Previous Day
Next Day
Current Day
    
SHEF ID:       OLBO2     North Canadian River blw Lk Over
STATION TYPE:  

               PRECIP     STAGE  RIV-FLOW  WTR-TEMP   DIS-OXY   CONDUCT  BAT-LOAD
                   in        ft       cfs         F      mg/l   umho/cm      volt
              Ccp-Rev   Ccp-Rev   Ccp-Rev   Ccp-Rev   Ccp-Rev   Ccp-Rev   Ccp-Rev
(US/Central)
01/02 00:00      0.00      3.92         6     32.70     14.36      1301     12.41
01/02 01:00      0.00      3.93         7     32.58     14.14      1309     12.41
01/02 02:00      0.00      3.92         6     32.45     13.93      1316     12.41
01/02 03:00      0.00      3.79         3     32.47     13.75      1318     12.41
01/02 04:00      0.00      3.90         6     32.43     13.59      1323     12.33
01/02 05:00      0.00      3.93         7     32.41     13.52      1323     12.33
01/02 06:00      0.00      3.94         7     32.41     13.47      1327     12.33
01/02 07:00      0.00      3.92         6     32.40     13.38      1328     12.33
01/02 08:00      0.00      3.85         4     32.38     13.38      1331     12.33
01/02 09:00      0.00      3.83         4     32.47     13.54      1331     12.33
01/02 10:00      0.00      3.87         5     32.59     13.93      1329     12.33
01/02 11:00      0.00      3.86         4     32.88     14.43      1325     12.41
01/02 12:00      0.00      3.85         4     33.24     15.02      1321     12.57
01/02 13:00      0.00      3.81         3     33.57     15.70      1317     12.73
01/02 14:00      0.00      3.86         4     33.82     16.21      1311     12.73
01/02 15:00      0.00      3.92         6     34.02     16.64      1306     12.65
01/02 16:00      0.00      3.89         5     34.03     16.86      1302     12.57
01/02 17:00      0.00      3.84         4     33.96     16.80      1298     12.49
01/02 18:00      0.00      3.91         6     33.76     16.56      1296     12.41
01/02 19:00      0.00      3.92         6     33.55     16.20      1297     12.33
01/02 20:00      0.00      3.91         6     33.37     15.69      1297     12.33
01/02 21:00      0.00      3.92         6     33.15     15.25      1301     12.33
01/02 22:00      0.00      3.93         7     32.94     14.80      1304     12.25
01/02 23:00      0.00      3.94         7     32.79     14.45      1308     12.25